createdAt,value
2018-02-20T00:01:53.618Z,5.75
2018-02-20T00:04:19.949Z,5.67
2018-02-20T00:06:46.333Z,5.47
2018-02-20T00:09:12.682Z,5.79
2018-02-20T00:11:39.025Z,5.89
2018-02-20T00:14:05.422Z,5.74
2018-02-20T00:16:31.813Z,5.89
2018-02-20T00:18:58.164Z,5.86
2018-02-20T00:21:24.537Z,6.15
2018-02-20T00:23:50.902Z,6.01
2018-02-20T00:26:17.232Z,6.03
2018-02-20T00:28:43.670Z,6.06
2018-02-20T00:31:10.017Z,6.14
2018-02-20T00:33:36.373Z,6.00
2018-02-20T00:36:02.810Z,5.89
2018-02-20T00:38:29.278Z,5.60
2018-02-20T00:40:55.631Z,5.94
2018-02-20T00:43:22.050Z,6.05
2018-02-20T00:45:48.393Z,6.05
2018-02-20T00:48:14.750Z,5.85
2018-02-20T00:50:41.158Z,5.71
2018-02-20T00:53:07.545Z,5.77
2018-02-20T00:55:33.916Z,5.90
2018-02-20T00:58:00.480Z,5.77
2018-02-20T01:00:26.870Z,5.48
2018-02-20T01:02:53.222Z,5.52
2018-02-20T01:05:19.553Z,5.69
2018-02-20T01:07:45.947Z,5.87
2018-02-20T01:10:12.289Z,5.98
2018-02-20T01:12:38.608Z,5.72
2018-02-20T01:15:05.104Z,6.05
2018-02-20T01:17:31.429Z,6.07
2018-02-20T01:19:57.869Z,5.87
2018-02-20T01:22:24.231Z,5.90
2018-02-20T01:24:50.611Z,6.09
2018-02-20T01:27:16.962Z,5.93
2018-02-20T01:29:43.333Z,5.88
2018-02-20T01:32:09.669Z,5.78
2018-02-20T01:34:36.117Z,5.92
2018-02-20T01:37:02.468Z,6.06
2018-02-20T01:39:28.845Z,6.16
2018-02-20T01:41:55.173Z,6.01
2018-02-20T01:44:21.542Z,5.99
2018-02-20T01:46:47.940Z,5.81
2018-02-20T01:49:14.682Z,5.91
2018-02-20T01:51:41.012Z,5.93
2018-02-20T01:54:07.373Z,6.01
2018-02-20T01:56:33.725Z,6.04
2018-02-20T01:59:00.061Z,6.15
2018-02-20T02:01:26.473Z,5.92
2018-02-20T02:03:52.825Z,5.93
2018-02-20T02:06:19.205Z,5.99
2018-02-20T02:08:45.637Z,5.84
2018-02-20T02:11:12.030Z,5.93
2018-02-20T02:13:38.376Z,6.02
2018-02-20T02:16:04.768Z,6.08
2018-02-20T02:18:31.181Z,6.03
2018-02-20T02:20:57.542Z,6.15
2018-02-20T02:23:23.927Z,5.98
2018-02-20T02:25:50.281Z,6.11
2018-02-20T02:28:16.645Z,6.01
2018-02-20T02:30:43.033Z,5.91
2018-02-20T02:33:09.491Z,6.08
2018-02-20T02:35:35.845Z,5.92
2018-02-20T02:38:02.229Z,6.05
2018-02-20T02:40:28.581Z,6.04
2018-02-20T02:42:54.934Z,5.62
2018-02-20T02:45:21.562Z,5.91
2018-02-20T02:47:47.906Z,5.91
2018-02-20T02:50:14.254Z,5.98
2018-02-20T02:52:40.632Z,6.03
2018-02-20T02:55:07.024Z,6.09
2018-02-20T02:57:33.349Z,5.90
2018-02-20T02:59:59.727Z,5.80
2018-02-20T03:02:26.094Z,5.63
2018-02-20T03:04:52.445Z,5.76
2018-02-20T03:07:18.910Z,5.77
2018-02-20T03:09:45.257Z,5.74
2018-02-20T03:12:11.790Z,5.85
2018-02-20T03:14:38.161Z,5.58
2018-02-20T03:17:04.513Z,5.58
2018-02-20T03:19:30.846Z,5.66
2018-02-20T03:21:57.218Z,5.64
2018-02-20T03:24:23.545Z,5.77
2018-02-20T03:26:49.877Z,5.82
2018-02-20T03:29:16.284Z,5.93
2018-02-20T03:31:42.630Z,5.81
2018-02-20T03:34:09.006Z,5.72
2018-02-20T03:36:35.401Z,5.75
2018-02-20T03:39:01.753Z,5.55
2018-02-20T03:41:28.105Z,5.53
2018-02-20T03:43:54.472Z,5.50
2018-02-20T03:46:20.845Z,5.63
2018-02-20T03:48:47.197Z,5.70
2018-02-20T03:51:13.566Z,5.66
2018-02-20T03:53:39.897Z,5.42
2018-02-20T03:56:06.257Z,5.82
2018-02-20T03:58:32.669Z,5.74
2018-02-20T04:00:59.056Z,5.84
2018-02-20T04:03:25.471Z,5.77
2018-02-20T04:05:51.817Z,5.78
2018-02-20T04:08:18.155Z,5.65
2018-02-20T04:10:44.590Z,5.73
2018-02-20T04:13:10.942Z,5.79
2018-02-20T04:15:37.302Z,5.76
2018-02-20T04:18:03.717Z,5.69
2018-02-20T04:20:30.093Z,5.87
2018-02-20T04:22:56.466Z,5.88
2018-02-20T04:25:22.862Z,5.66
2018-02-20T04:27:49.213Z,5.42
2018-02-20T04:30:15.545Z,5.66
2018-02-20T04:32:41.951Z,5.75
2018-02-20T04:35:08.305Z,5.83
2018-02-20T04:37:34.645Z,5.91
2018-02-20T04:40:00.991Z,5.99
2018-02-20T04:42:27.325Z,6.02
2018-02-20T04:44:53.694Z,5.95
2018-02-20T04:47:20.957Z,6.01
2018-02-20T04:49:47.313Z,5.96
2018-02-20T04:52:13.710Z,5.86
2018-02-20T04:54:40.090Z,5.78
2018-02-20T04:57:06.413Z,5.91
2018-02-20T04:59:32.901Z,5.99
2018-02-20T05:01:59.277Z,6.03
2018-02-20T05:04:25.713Z,6.07
2018-02-20T05:06:52.153Z,6.00
2018-02-20T05:09:18.558Z,5.99
2018-02-20T05:11:45.120Z,5.98
2018-02-20T05:14:11.573Z,5.95
2018-02-20T05:16:37.888Z,5.96
2018-02-20T05:19:04.231Z,5.92
2018-02-20T05:21:30.601Z,5.84
2018-02-20T05:23:56.970Z,5.76
2018-02-20T05:26:23.322Z,5.61
2018-02-20T05:28:49.714Z,5.61
2018-02-20T05:31:16.090Z,5.76
2018-02-20T05:33:42.425Z,5.78
2018-02-20T05:36:08.761Z,5.68
2018-02-20T05:38:35.104Z,5.60
2018-02-20T05:41:01.457Z,5.54
2018-02-20T05:43:27.821Z,5.72
2018-02-20T05:45:54.203Z,5.72
2018-02-20T05:48:20.550Z,5.80
2018-02-20T05:50:46.917Z,5.76
2018-02-20T05:53:13.314Z,5.86
2018-02-20T05:55:39.658Z,5.90
2018-02-20T05:58:06.049Z,5.94
2018-02-20T06:00:32.651Z,5.90
2018-02-20T06:02:59.025Z,5.88
2018-02-20T06:05:25.370Z,5.88
2018-02-20T06:07:51.819Z,5.97
2018-02-20T06:10:18.189Z,5.98
2018-02-20T06:12:44.546Z,6.00
2018-02-20T06:15:11.586Z,6.12
2018-02-20T06:17:38.018Z,6.09
2018-02-20T06:20:04.380Z,6.14
2018-02-20T06:22:30.780Z,6.14
2018-02-20T06:24:57.146Z,6.10
2018-02-20T06:27:23.547Z,6.06
2018-02-20T06:29:49.978Z,5.97
2018-02-20T06:32:16.349Z,5.98
2018-02-20T06:34:42.897Z,5.94
2018-02-20T06:37:09.274Z,5.92
2018-02-20T06:39:35.617Z,6.04
2018-02-20T06:42:01.970Z,5.89
2018-02-20T06:44:28.382Z,5.70
2018-02-20T06:46:54.863Z,5.64
2018-02-20T06:49:21.215Z,5.88
2018-02-20T06:51:47.645Z,5.97
2018-02-20T06:54:13.980Z,5.88
2018-02-20T06:56:40.361Z,5.83
2018-02-20T06:59:06.806Z,5.84
2018-02-20T07:01:33.152Z,5.54
2018-02-20T07:03:59.507Z,5.67
2018-02-20T07:06:25.917Z,5.87
2018-02-20T07:08:52.269Z,5.85
2018-02-20T07:11:18.758Z,5.89
2018-02-20T07:13:45.342Z,5.91
2018-02-20T07:16:11.726Z,5.83
2018-02-20T07:18:38.145Z,5.91
2018-02-20T07:21:04.641Z,5.90
2018-02-20T07:23:31.006Z,6.01
2018-02-20T07:25:57.370Z,6.01
2018-02-20T07:28:30.833Z,6.07
2018-02-20T07:30:57.186Z,6.12
2018-02-20T07:33:23.576Z,6.12
2018-02-20T07:35:50.062Z,5.96
2018-02-20T07:38:16.413Z,5.91
2018-02-20T07:40:42.761Z,5.96
2018-02-20T07:43:09.198Z,5.87
2018-02-20T07:45:35.551Z,5.75
2018-02-20T07:48:01.957Z,5.67
2018-02-20T07:50:28.369Z,5.59
2018-02-20T07:52:54.762Z,5.82
2018-02-20T07:55:21.186Z,6.00
2018-02-20T07:57:47.658Z,5.90
2018-02-20T08:00:14.114Z,5.92
2018-02-20T08:02:40.548Z,5.97
2018-02-20T08:05:07.321Z,5.99
2018-02-20T08:07:33.924Z,5.93
2018-02-20T08:10:00.348Z,5.77
2018-02-20T08:12:26.868Z,5.85
2018-02-20T08:14:53.365Z,5.74
2018-02-20T08:17:19.841Z,5.66
2018-02-20T08:19:46.268Z,5.84
2018-02-20T08:22:12.717Z,5.88
2018-02-20T08:24:39.109Z,5.71
2018-02-20T08:27:05.590Z,5.87
2018-02-20T08:29:31.943Z,6.05
2018-02-20T08:31:58.296Z,6.12
2018-02-20T08:34:24.686Z,6.15
2018-02-20T08:36:51.061Z,6.16
2018-02-20T08:39:17.445Z,5.95
2018-02-20T08:41:43.809Z,5.89
2018-02-20T08:44:10.180Z,6.14
2018-02-20T08:46:36.666Z,6.02
2018-02-20T08:49:03.053Z,6.15
2018-02-20T08:51:29.423Z,6.24
2018-02-20T08:53:55.805Z,6.02
2018-02-20T08:56:22.193Z,6.12
2018-02-20T08:58:48.582Z,6.20
2018-02-20T09:01:14.983Z,6.23
2018-02-20T09:03:41.403Z,6.23
2018-02-20T09:06:07.730Z,6.20
2018-02-20T09:08:34.233Z,6.17
2018-02-20T09:11:00.626Z,6.19
2018-02-20T09:13:27.128Z,6.29
2018-02-20T09:15:53.540Z,6.33
2018-02-20T09:18:19.898Z,6.30
2018-02-20T09:20:46.310Z,6.18
2018-02-20T09:23:12.658Z,6.30
2018-02-20T09:25:39.074Z,6.05
2018-02-20T09:28:05.438Z,5.93
2018-02-20T09:30:31.817Z,6.09
2018-02-20T09:32:58.158Z,6.18
2018-02-20T09:35:24.569Z,6.34
2018-02-20T09:37:50.949Z,6.40
2018-02-20T09:40:17.345Z,6.50
2018-02-20T09:42:43.779Z,6.46
2018-02-20T09:45:10.150Z,6.28
2018-02-20T09:47:36.528Z,6.26
2018-02-20T09:50:03.047Z,6.17
2018-02-20T09:52:29.467Z,6.20
2018-02-20T09:54:55.857Z,6.36
2018-02-20T09:57:22.218Z,6.41
2018-02-20T09:59:48.557Z,6.34
2018-02-20T10:02:15.132Z,6.14
2018-02-20T10:04:41.485Z,6.28
2018-02-20T10:07:07.837Z,6.40
2018-02-20T10:09:34.230Z,6.48
2018-02-20T10:12:00.601Z,6.33
2018-02-20T10:14:26.956Z,6.23
2018-02-20T10:16:53.330Z,6.05
2018-02-20T10:19:19.693Z,6.22
2018-02-20T10:21:46.054Z,6.03
2018-02-20T10:24:12.466Z,6.07
2018-02-20T10:26:38.852Z,6.19
2018-02-20T10:29:05.206Z,6.32
2018-02-20T10:31:31.596Z,6.11
2018-02-20T10:33:57.973Z,6.11
2018-02-20T10:36:24.328Z,6.24
2018-02-20T10:38:50.811Z,6.40
2018-02-20T10:41:17.148Z,6.24
2018-02-20T10:43:43.561Z,6.31
2018-02-20T10:46:10.180Z,6.38
2018-02-20T10:48:36.658Z,6.32
2018-02-20T10:51:03.058Z,6.20
2018-02-20T10:53:29.479Z,6.32
2018-02-20T10:55:55.966Z,6.33
2018-02-20T10:58:22.373Z,6.35
2018-02-20T11:00:48.780Z,6.37
2018-02-20T11:03:15.137Z,6.57
2018-02-20T11:05:41.577Z,6.71
2018-02-20T11:08:07.934Z,6.67
2018-02-20T11:10:34.285Z,6.75
2018-02-20T11:13:00.705Z,6.70
2018-02-20T11:15:27.054Z,6.68
2018-02-20T11:17:53.404Z,6.72
2018-02-20T11:20:19.837Z,6.68
2018-02-20T11:22:46.176Z,6.72
2018-02-20T11:25:12.543Z,6.73
2018-02-20T11:27:39.045Z,6.54
2018-02-20T11:30:05.467Z,6.32
2018-02-20T11:32:31.854Z,6.47
2018-02-20T11:34:58.223Z,6.53
2018-02-20T11:37:24.549Z,6.62
2018-02-20T11:39:50.915Z,6.68
2018-02-20T11:42:17.281Z,6.67
2018-02-20T11:44:43.765Z,6.53
2018-02-20T11:47:10.127Z,6.54
2018-02-20T11:49:36.535Z,6.66
2018-02-20T11:52:02.905Z,6.73
2018-02-20T11:54:29.269Z,6.74
2018-02-20T11:56:55.736Z,6.74
2018-02-20T11:59:22.213Z,6.81
2018-02-20T12:01:48.592Z,6.72
2018-02-20T12:04:15.110Z,6.57
2018-02-20T12:06:41.461Z,6.65
2018-02-20T12:09:07.785Z,6.65
2018-02-20T12:11:34.150Z,6.77
2018-02-20T12:14:00.592Z,6.83
2018-02-20T12:16:26.956Z,6.91
2018-02-20T12:18:53.296Z,6.88
2018-02-20T12:21:19.685Z,7.02
2018-02-20T12:23:46.226Z,7.01
2018-02-20T12:26:12.593Z,7.04
2018-02-20T12:28:39.014Z,7.06
2018-02-20T12:31:05.414Z,7.04
2018-02-20T12:33:31.762Z,7.02
2018-02-20T12:35:58.194Z,6.89
2018-02-20T12:38:24.569Z,6.90
2018-02-20T12:40:50.952Z,6.98
2018-02-20T12:43:17.657Z,7.03
2018-02-20T12:45:44.089Z,6.87
2018-02-20T12:48:10.479Z,6.90
2018-02-20T12:50:36.933Z,6.90
2018-02-20T12:53:03.262Z,6.94
2018-02-20T12:55:29.736Z,6.99
2018-02-20T12:57:56.262Z,6.92
2018-02-20T13:00:22.698Z,6.82
2018-02-20T13:02:49.173Z,6.92
2018-02-20T13:05:15.624Z,6.99
2018-02-20T13:07:42.060Z,7.00
2018-02-20T13:10:08.440Z,7.07
2018-02-20T13:12:34.885Z,7.10
2018-02-20T13:15:01.253Z,7.10
2018-02-20T13:17:27.683Z,7.04
2018-02-20T13:19:54.354Z,7.07
2018-02-20T13:22:20.714Z,7.11
2018-02-20T13:24:47.066Z,7.21
2018-02-20T13:27:13.457Z,7.14
2018-02-20T13:29:39.824Z,7.15
2018-02-20T13:32:06.186Z,7.15
2018-02-20T13:34:32.577Z,7.19
2018-02-20T13:36:58.930Z,7.23
2018-02-20T13:39:25.299Z,7.28
2018-02-20T13:41:51.738Z,7.25
2018-02-20T13:44:18.166Z,7.23
2018-02-20T13:46:44.565Z,7.26
2018-02-20T13:49:10.993Z,7.25
2018-02-20T13:51:37.445Z,7.27
2018-02-20T13:54:03.814Z,7.36
2018-02-20T13:56:30.621Z,7.31
2018-02-20T13:58:57.059Z,7.25
2018-02-20T14:01:30.554Z,7.27
2018-02-20T14:03:56.996Z,7.25
2018-02-20T14:06:23.486Z,7.28
2018-02-20T14:08:50.081Z,7.27
2018-02-20T14:11:16.549Z,7.28
2018-02-20T14:13:43.346Z,7.31
2018-02-20T14:16:09.765Z,7.36
2018-02-20T14:18:36.159Z,7.40
2018-02-20T14:21:03.253Z,7.44
2018-02-20T14:23:30.013Z,7.50
2018-02-20T14:25:56.450Z,7.48
2018-02-20T14:28:22.849Z,7.36
2018-02-20T14:30:49.361Z,7.28
2018-02-20T14:33:16.441Z,7.22
2018-02-20T14:35:42.820Z,7.24
2018-02-20T14:38:09.250Z,7.34
2018-02-20T14:40:35.872Z,7.25
2018-02-20T14:43:02.256Z,7.32
2018-02-20T14:45:28.768Z,7.38
2018-02-20T14:47:55.198Z,7.37
2018-02-20T14:50:21.579Z,7.33
2018-02-20T14:52:48.057Z,7.45
2018-02-20T14:55:14.469Z,7.42
2018-02-20T14:57:41.162Z,7.37
2018-02-20T15:00:07.761Z,7.40
2018-02-20T15:02:34.302Z,7.40
2018-02-20T15:05:00.698Z,7.42
2018-02-20T15:07:27.246Z,7.41
2018-02-20T15:09:53.792Z,7.38
2018-02-20T15:12:20.246Z,7.40
2018-02-20T15:14:46.735Z,7.36
2018-02-20T15:17:16.368Z,7.34
2018-02-20T15:19:43.132Z,7.31
2018-02-20T15:22:09.661Z,7.33
2018-02-20T15:24:36.113Z,7.37
2018-02-20T15:27:02.571Z,7.41
2018-02-20T15:29:29.110Z,7.41
2018-02-20T15:31:55.744Z,7.44
2018-02-20T15:34:22.247Z,7.43
2018-02-20T15:36:48.698Z,7.46
2018-02-20T15:39:15.156Z,7.47
2018-02-20T15:41:41.638Z,7.46
2018-02-20T15:44:08.157Z,7.44
2018-02-20T15:46:34.736Z,7.48
2018-02-20T15:49:01.094Z,7.47
2018-02-20T15:51:27.489Z,7.53
2018-02-20T15:53:53.926Z,7.55
2018-02-20T15:56:20.315Z,7.58
2018-02-20T15:58:46.824Z,7.58
2018-02-20T16:01:13.322Z,7.54
2018-02-20T16:03:39.722Z,7.58
2018-02-20T16:06:06.086Z,7.58
2018-02-20T16:08:32.561Z,7.55
2018-02-20T16:10:58.947Z,7.54
2018-02-20T16:13:25.347Z,7.56
2018-02-20T16:16:05.858Z,7.57
2018-02-20T16:18:32.277Z,7.57
2018-02-20T16:20:58.645Z,7.60
2018-02-20T16:23:25.039Z,7.58
2018-02-20T16:25:51.461Z,7.62
2018-02-20T16:28:18.036Z,7.62
2018-02-20T16:30:44.494Z,7.63
2018-02-20T16:33:10.854Z,7.63
2018-02-20T16:35:37.309Z,7.65
2018-02-20T16:38:03.740Z,7.65
2018-02-20T16:40:30.136Z,7.65
2018-02-20T16:42:56.553Z,7.63
2018-02-20T16:45:23.038Z,7.59
2018-02-20T16:47:49.487Z,7.57
2018-02-20T16:50:15.890Z,7.58
2018-02-20T16:52:42.411Z,7.60
2018-02-20T16:55:08.846Z,7.59
2018-02-20T16:57:35.237Z,7.63
2018-02-20T17:00:01.665Z,7.61
2018-02-20T17:02:28.175Z,7.62
2018-02-20T17:04:54.526Z,7.63
2018-02-20T17:07:20.929Z,7.62
2018-02-20T17:09:47.319Z,7.64
2018-02-20T17:12:13.730Z,7.65
2018-02-20T17:14:40.534Z,7.66
2018-02-20T17:17:06.901Z,7.64
2018-02-20T17:19:33.403Z,7.65
2018-02-20T17:21:59.918Z,7.61
2018-02-20T17:24:26.378Z,7.63
2018-02-20T17:26:52.861Z,7.65
2018-02-20T17:29:19.222Z,7.52
2018-02-20T17:31:45.653Z,7.64
2018-02-20T17:34:12.164Z,7.55
2018-02-20T17:36:38.531Z,7.62
2018-02-20T17:39:04.966Z,7.64
2018-02-20T17:41:31.383Z,7.68
2018-02-20T17:43:57.754Z,7.71
2018-02-20T17:46:24.260Z,7.71
2018-02-20T17:48:50.721Z,7.76
2018-02-20T17:51:17.094Z,7.72
2018-02-20T17:53:43.658Z,7.75
2018-02-20T17:56:10.045Z,7.75
2018-02-20T17:58:37.196Z,7.72
2018-02-20T18:01:03.546Z,7.69
2018-02-20T18:03:29.979Z,7.68
2018-02-20T18:05:56.436Z,7.66
2018-02-20T18:08:22.809Z,7.66
2018-02-20T18:10:49.239Z,7.65
2018-02-20T18:13:15.718Z,7.66
2018-02-20T18:29:32.706Z,7.64
2018-02-20T18:31:59.090Z,7.61
2018-02-20T18:34:25.513Z,7.57
2018-02-20T18:36:51.950Z,7.56
2018-02-20T18:39:18.302Z,7.57
2018-02-20T18:41:44.650Z,7.58
2018-02-20T18:44:11.186Z,7.60
2018-02-20T18:46:37.787Z,7.62
2018-02-20T18:49:04.186Z,7.61
2018-02-20T18:51:30.610Z,7.62
2018-02-20T18:53:57.026Z,7.60
2018-02-20T18:56:23.378Z,7.58
2018-02-20T18:58:49.814Z,7.58
2018-02-20T19:01:16.230Z,7.55
2018-02-20T19:03:42.634Z,7.54
2018-02-20T19:06:09.078Z,7.54
2018-02-20T19:08:35.491Z,7.53
2018-02-20T19:11:01.879Z,7.56
2018-02-20T19:13:28.319Z,7.54
2018-02-20T19:15:54.766Z,7.53
2018-02-20T19:18:21.158Z,7.51
2018-02-20T19:20:47.609Z,7.46
2018-02-20T19:23:14.021Z,7.48
2018-02-20T19:25:40.437Z,7.50
2018-02-20T19:28:06.852Z,7.53
2018-02-20T19:30:33.250Z,7.51
2018-02-20T19:32:59.624Z,7.52
2018-02-20T19:35:26.065Z,7.49
2018-02-20T19:37:52.498Z,7.48
2018-02-20T19:40:18.850Z,7.47
2018-02-20T19:42:45.283Z,7.45
2018-02-20T19:45:11.634Z,7.44
2018-02-20T19:47:38.022Z,7.44
2018-02-20T19:50:04.510Z,7.44
2018-02-20T19:52:30.914Z,7.04
2018-02-20T19:54:57.468Z,7.24
2018-02-20T19:57:23.846Z,7.29
2018-02-20T19:59:50.294Z,7.00
2018-02-20T20:02:16.687Z,7.08
2018-02-20T20:04:43.046Z,7.15
2018-02-20T20:07:09.594Z,7.22
2018-02-20T20:09:36.023Z,7.27
2018-02-20T20:12:02.493Z,7.22
2018-02-20T20:14:28.858Z,7.17
2018-02-20T20:16:55.361Z,7.25
2018-02-20T20:19:21.724Z,7.28
2018-02-20T20:21:48.215Z,7.27
2018-02-20T20:24:14.696Z,7.28
2018-02-20T20:26:41.167Z,7.27
2018-02-20T20:29:07.568Z,7.05
2018-02-20T20:31:33.979Z,7.17
2018-02-20T20:34:00.337Z,7.27
2018-02-20T20:36:26.833Z,7.28
2018-02-20T20:38:53.321Z,7.24
2018-02-20T20:41:19.681Z,7.30
2018-02-20T20:43:46.066Z,7.31
2018-02-20T20:46:12.441Z,7.32
2018-02-20T20:48:38.777Z,7.34
2018-02-20T20:51:05.209Z,7.30
2018-02-20T20:53:31.567Z,7.34
2018-02-20T20:55:57.928Z,7.32
2018-02-20T20:58:24.313Z,7.30
2018-02-20T21:00:50.758Z,7.30
2018-02-20T21:03:17.114Z,7.34
2018-02-20T21:05:43.630Z,7.29
2018-02-20T21:08:10.058Z,7.34
2018-02-20T21:10:36.413Z,7.28
2018-02-20T21:13:02.778Z,7.23
2018-02-20T21:15:29.205Z,7.18
2018-02-20T21:17:55.641Z,7.20
2018-02-20T21:20:22.146Z,7.22
2018-02-20T21:22:48.683Z,7.21
2018-02-20T21:25:15.054Z,7.23
2018-02-20T21:27:41.461Z,7.26
2018-02-20T21:30:07.966Z,7.28
2018-02-20T21:32:34.519Z,7.25
2018-02-20T21:35:00.930Z,7.09
2018-02-20T21:37:27.326Z,7.21
2018-02-20T21:39:53.718Z,7.20
2018-02-20T21:42:20.065Z,7.27
2018-02-20T21:44:46.514Z,7.19
2018-02-20T21:47:13.972Z,7.07
2018-02-20T21:49:40.347Z,7.09
2018-02-20T21:52:06.742Z,7.06
2018-02-20T21:54:33.325Z,7.10
2018-02-20T21:56:59.762Z,7.14
2018-02-20T21:59:26.257Z,7.09
2018-02-20T22:01:52.804Z,7.11
2018-02-20T22:04:19.220Z,7.08
2018-02-20T22:06:45.753Z,7.13
2018-02-20T22:09:12.326Z,7.17
2018-02-20T22:11:38.782Z,7.23
2018-02-20T22:14:05.250Z,7.25
2018-02-20T22:16:31.729Z,7.22
2018-02-20T22:18:58.193Z,7.22
2018-02-20T22:21:24.738Z,7.23
2018-02-20T22:23:51.162Z,7.28
2018-02-20T22:26:17.568Z,7.24
2018-02-20T22:28:44.256Z,7.24
2018-02-20T22:31:10.711Z,7.21
2018-02-20T22:33:37.238Z,7.22
2018-02-20T22:36:03.758Z,7.21
2018-02-20T22:38:30.116Z,7.25
2018-02-20T22:40:56.550Z,7.24
2018-02-20T22:43:22.997Z,7.26
2018-02-20T22:45:49.381Z,7.23
2018-02-20T22:48:15.758Z,7.21
2018-02-20T22:50:42.178Z,7.22
2018-02-20T22:53:08.636Z,7.19
2018-02-20T22:55:35.010Z,7.20
2018-02-20T22:58:01.434Z,7.21
2018-02-20T23:00:27.812Z,7.22
2018-02-20T23:02:54.215Z,7.23
2018-02-20T23:05:20.757Z,7.24
2018-02-20T23:07:47.129Z,7.26
2018-02-20T23:10:13.482Z,7.24
2018-02-20T23:12:39.874Z,7.26
2018-02-20T23:15:06.220Z,7.18
2018-02-20T23:17:32.618Z,7.17
2018-02-20T23:19:59.027Z,7.21
2018-02-20T23:22:25.418Z,7.13
2018-02-20T23:24:51.779Z,7.17
2018-02-20T23:27:18.142Z,7.15
2018-02-20T23:29:44.543Z,7.19
2018-02-20T23:32:10.874Z,7.19
2018-02-20T23:34:37.309Z,7.12
2018-02-20T23:37:03.717Z,7.15
2018-02-20T23:39:30.067Z,7.15
2018-02-20T23:41:56.459Z,7.16
2018-02-20T23:44:22.806Z,7.19
2018-02-20T23:46:49.203Z,7.22
2018-02-20T23:49:15.623Z,7.16
2018-02-20T23:51:41.974Z,7.17
2018-02-20T23:54:08.302Z,7.16
2018-02-20T23:56:34.740Z,7.17
2018-02-20T23:59:01.114Z,7.18
